Time;durP1;ratioP1;P1;durP2;ratioP2;P2;SDS_P1;SDS_P2;PMS_P1;PMS_P2;Temp;Humidity;BMP_temperature;BMP_pressure;BME280_temperature;BME280_humidity;BME280_pressure;Samples;Min_cycle;Max_cycle;Signal;HPM_P1;HPM_P2
2021/05/05 00:01:00;;;;;;;1.55;1.45;;;10.10;43.50;;;;;;5067485;28;20095;-79
2021/05/05 00:03:26;;;;;;;3.75;1.40;;;10.10;43.50;;;;;;5068218;28;20040;-78
2021/05/05 00:05:56;;;;;;;1.90;1.50;;;10.00;43.40;;;;;;5067069;28;20032;-78
2021/05/05 00:08:22;;;;;;;2.63;1.52;;;10.00;43.50;;;;;;5068641;28;20040;-78
2021/05/05 00:10:49;;;;;;;1.60;1.50;;;10.00;43.50;;;;;;5050469;28;20039;-78
2021/05/05 00:13:15;;;;;;;2.33;1.90;;;10.00;43.50;;;;;;5068400;28;20809;-80
2021/05/05 00:15:41;;;;;;;1.88;1.50;;;10.00;43.60;;;;;;5068522;28;20025;-79
2021/05/05 00:18:08;;;;;;;1.80;1.70;;;9.90;43.50;;;;;;5068368;28;20045;-79
2021/05/05 00:20:34;;;;;;;4.72;1.77;;;9.90;43.50;;;;;;5068605;28;20475;-78
2021/05/05 00:23:00;;;;;;;2.38;1.67;;;9.90;43.50;;;;;;5067719;28;20127;-78
2021/05/05 00:25:27;;;;;;;2.58;1.75;;;9.90;43.60;;;;;;5067102;28;20499;-77
2021/05/05 00:27:53;;;;;;;2.13;1.40;;;9.90;43.70;;;;;;5050551;28;20036;-77
2021/05/05 00:30:21;;;;;;;2.10;1.65;;;9.90;43.70;;;;;;5066210;28;20043;-77
2021/05/05 00:32:47;;;;;;;1.77;1.48;;;9.90;43.70;;;;;;5066641;28;20032;-77
2021/05/05 00:35:14;;;;;;;4.25;1.70;;;9.80;43.60;;;;;;5068317;28;20463;-76
2021/05/05 00:37:42;;;;;;;2.53;1.70;;;9.90;43.80;;;;;;5068284;28;20032;-77
2021/05/05 00:40:10;;;;;;;2.78;1.75;;;9.80;43.70;;;;;;5067664;28;20028;-77
2021/05/05 00:42:37;;;;;;;3.28;1.75;;;9.80;43.70;;;;;;5067112;28;20043;-76
2021/05/05 00:45:07;;;;;;;1.88;1.67;;;9.80;43.80;;;;;;5065581;28;20235;-76
2021/05/05 00:47:33;;;;;;;3.17;1.70;;;9.80;43.80;;;;;;5067602;28;20066;-76
2021/05/05 00:49:59;;;;;;;2.05;1.80;;;9.80;43.80;;;;;;5067546;28;20075;-76
2021/05/05 00:52:26;;;;;;;3.80;1.60;;;9.90;44.10;;;;;;5066613;28;20466;-76
2021/05/05 00:54:53;;;;;;;3.72;1.90;;;9.90;44.10;;;;;;5067160;28;20036;-76
2021/05/05 00:57:19;;;;;;;5.55;1.95;;;9.90;44.10;;;;;;5050155;28;20074;-76
2021/05/05 00:59:47;;;;;;;2.90;1.80;;;9.90;44.10;;;;;;5066252;28;20085;-75
2021/05/05 01:02:14;;;;;;;2.20;1.83;;;9.80;44.00;;;;;;5067291;28;20040;-76
2021/05/05 01:04:41;;;;;;;1.88;1.58;;;9.90;44.20;;;;;;5045631;28;20040;-76
2021/05/05 01:07:09;;;;;;;4.07;1.70;;;9.90;44.20;;;;;;5045988;28;20171;-75
2021/05/05 01:09:36;;;;;;;3.90;1.83;;;9.90;44.20;;;;;;5060390;28;20032;-75
2021/05/05 01:12:03;;;;;;;3.13;1.95;;;9.80;44.00;;;;;;5066934;28;20032;-76
2021/05/05 01:14:30;;;;;;;2.15;1.52;;;9.80;44.10;;;;;;5065537;28;20059;-75
2021/05/05 01:16:56;;;;;;;2.03;1.45;;;9.80;44.10;;;;;;5066306;28;20035;-76
2021/05/05 01:19:22;;;;;;;2.97;1.60;;;9.80;44.10;;;;;;5065230;28;20492;-77
2021/05/05 01:21:48;;;;;;;1.83;1.73;;;9.80;44.10;;;;;;5066904;28;20024;-76
2021/05/05 01:24:14;;;;;;;1.90;1.50;;;9.80;44.10;;;;;;5066961;28;20036;-76
2021/05/05 01:26:41;;;;;;;4.18;1.55;;;9.80;44.10;;;;;;5067298;28;20037;-77
2021/05/05 01:29:10;;;;;;;1.75;1.40;;;9.80;44.20;;;;;;5065734;28;20059;-76
2021/05/05 01:31:36;;;;;;;1.80;1.52;;;9.70;44.00;;;;;;5060199;28;20039;-76
2021/05/05 01:34:03;;;;;;;2.08;1.70;;;9.80;44.20;;;;;;5063472;28;20283;-77
2021/05/05 01:36:32;;;;;;;1.80;1.40;;;9.70;44.10;;;;;;5048075;28;20119;-76
2021/05/05 01:38:59;;;;;;;2.33;1.60;;;9.70;44.10;;;;;;5058835;28;20377;-75
2021/05/05 01:41:26;;;;;;;2.25;1.60;;;9.70;44.10;;;;;;5046759;28;20120;-76
2021/05/05 01:43:52;;;;;;;1.55;1.40;;;9.70;44.20;;;;;;5046963;28;20035;-75
2021/05/05 01:46:20;;;;;;;2.40;1.60;;;9.60;44.00;;;;;;5055933;28;20144;-75
2021/05/05 01:48:46;;;;;;;2.53;1.85;;;9.60;44.10;;;;;;5059842;28;20166;-75
2021/05/05 01:51:14;;;;;;;3.75;2.08;;;9.70;44.90;;;;;;5051168;28;20025;-75
2021/05/05 01:53:41;;;;;;;2.50;1.38;;;9.60;44.20;;;;;;5049878;28;20477;-76
2021/05/05 01:56:07;;;;;;;2.15;1.65;;;9.60;44.20;;;;;;5049484;28;20025;-75
2021/05/05 01:58:33;;;;;;;4.15;1.48;;;9.60;44.20;;;;;;5049912;28;20040;-75
2021/05/05 02:01:01;;;;;;;2.63;1.60;;;9.60;44.30;;;;;;5049752;28;20792;-76
2021/05/05 02:03:28;;;;;;;1.50;1.20;;;9.60;44.30;;;;;;5049652;28;20559;-76
2021/05/05 02:06:13;;;;;;;1.83;1.50;;;9.50;44.10;;;;;;5050449;28;20369;-75
2021/05/05 02:08:50;;;;;;;2.28;1.55;;;9.50;44.20;;;;;;5051162;28;20550;-76
2021/05/05 02:11:17;;;;;;;1.70;1.50;;;9.40;44.10;;;;;;5051388;28;20072;-76
2021/05/05 02:13:43;;;;;;;1.95;1.40;;;9.40;44.10;;;;;;5050870;28;20025;-76
2021/05/05 02:16:09;;;;;;;1.67;1.58;;;9.40;44.20;;;;;;5050593;28;20037;-76
2021/05/05 02:18:41;;;;;;;2.13;1.40;;;9.40;44.20;;;;;;5050007;28;20059;-76
2021/05/05 02:21:07;;;;;;;2.17;1.40;;;9.40;44.30;;;;;;5050900;28;20025;-77
2021/05/05 02:23:34;;;;;;;1.75;1.30;;;9.30;44.20;;;;;;5052163;28;20033;-78
2021/05/05 02:26:01;;;;;;;1.73;1.45;;;9.30;44.20;;;;;;5066230;28;20090;-76
2021/05/05 02:28:30;;;;;;;1.48;1.33;;;9.30;44.20;;;;;;5049821;28;20089;-76
2021/05/05 02:31:13;;;;;;;;;;;9.20;44.20;;;;;;5050187;28;20029;-78
2021/05/05 02:33:39;;;;;;;1.52;1.40;;;9.20;44.10;;;;;;5049480;28;19908;-82
2021/05/05 02:36:06;;;;;;;1.30;1.10;;;9.10;43.80;;;;;;5049501;28;20380;-78
2021/05/05 02:38:32;;;;;;;1.40;1.30;;;9.10;43.90;;;;;;5049904;28;20156;-79
2021/05/05 02:40:59;;;;;;;2.33;1.27;;;9.10;44.00;;;;;;5049642;28;20388;-78
2021/05/05 02:43:25;;;;;;;1.77;1.40;;;9.10;44.10;;;;;;5049342;28;20044;-77
2021/05/05 02:45:52;;;;;;;1.30;1.20;;;9.00;44.00;;;;;;5049249;28;20518;-78
2021/05/05 02:48:19;;;;;;;2.95;1.90;;;9.00;44.00;;;;;;5049587;28;20114;-78
2021/05/05 02:50:45;;;;;;;1.50;1.40;;;9.00;44.10;;;;;;5050281;28;20628;-78
2021/05/05 02:53:11;;;;;;;1.40;1.23;;;9.00;44.20;;;;;;5050316;28;20021;-77
2021/05/05 02:55:37;;;;;;;1.40;1.30;;;9.00;44.20;;;;;;5049361;28;20111;-78
2021/05/05 02:58:03;;;;;;;2.17;1.60;;;9.00;44.30;;;;;;5050680;28;20499;-78
2021/05/05 03:00:29;;;;;;;1.85;1.60;;;8.90;44.10;;;;;;5050721;28;20036;-78
2021/05/05 03:02:55;;;;;;;2.17;1.23;;;8.90;44.20;;;;;;5050205;28;20094;-77
2021/05/05 03:05:21;;;;;;;1.15;1.05;;;8.90;44.20;;;;;;5050393;28;20471;-78
2021/05/05 03:07:47;;;;;;;1.40;1.30;;;8.90;44.20;;;;;;5052129;28;20021;-78
2021/05/05 03:10:13;;;;;;;1.30;1.20;;;8.90;44.30;;;;;;5052316;28;20524;-77
2021/05/05 03:12:39;;;;;;;1.60;1.50;;;8.80;44.10;;;;;;5052615;28;20132;-77
2021/05/05 03:15:07;;;;;;;1.30;1.20;;;8.80;44.10;;;;;;5053734;28;20422;-77
2021/05/05 03:17:33;;;;;;;1.48;1.30;;;8.80;44.20;;;;;;5053671;28;20036;-77
2021/05/05 03:19:59;;;;;;;1.55;1.45;;;8.80;44.20;;;;;;5053846;28;20060;-77
2021/05/05 03:22:25;;;;;;;3.33;1.42;;;8.70;44.10;;;;;;5036111;28;20053;-78
2021/05/05 03:24:51;;;;;;;1.55;1.30;;;8.70;44.10;;;;;;5053573;28;20096;-77
2021/05/05 03:27:17;;;;;;;1.73;1.10;;;8.70;44.20;;;;;;5053632;28;20074;-78
2021/05/05 03:29:43;;;;;;;1.15;1.13;;;8.70;44.20;;;;;;5051839;28;20048;-78
2021/05/05 03:32:09;;;;;;;1.55;1.20;;;8.60;44.10;;;;;;5052358;28;20362;-77
2021/05/05 03:34:35;;;;;;;1.27;1.17;;;8.60;44.20;;;;;;5057799;28;20112;-77
2021/05/05 03:37:01;;;;;;;1.80;1.25;;;8.60;44.20;;;;;;5068320;28;20743;-75
2021/05/05 03:39:27;;;;;;;1.20;1.10;;;8.60;44.20;;;;;;5073127;28;20236;-77
2021/05/05 03:41:53;;;;;;;1.42;1.13;;;8.50;44.10;;;;;;5073541;28;20036;-77
2021/05/05 03:44:19;;;;;;;4.43;1.20;;;8.50;44.20;;;;;;5071859;28;20074;-77
2021/05/05 03:46:45;;;;;;;3.30;1.25;;;8.50;44.20;;;;;;5072323;28;20545;-77
2021/05/05 03:49:11;;;;;;;1.20;1.10;;;8.50;44.20;;;;;;5073355;28;20522;-78
2021/05/05 03:51:37;;;;;;;1.25;1.15;;;8.50;44.30;;;;;;5071757;28;20138;-77
2021/05/05 03:54:04;;;;;;;1.60;1.30;;;8.50;44.30;;;;;;5073334;28;20040;-77
2021/05/05 03:56:30;;;;;;;2.55;1.23;;;8.50;44.40;;;;;;5072999;28;20036;-77
2021/05/05 03:58:56;;;;;;;1.40;1.30;;;8.40;44.20;;;;;;5071818;28;20476;-77
2021/05/05 04:01:22;;;;;;;1.33;1.23;;;8.40;44.20;;;;;;5073305;28;20028;-78
2021/05/05 04:03:48;;;;;;;1.70;1.52;;;8.40;44.30;;;;;;5054968;28;20067;-77
2021/05/05 04:06:14;;;;;;;1.10;1.00;;;8.40;44.30;;;;;;5072987;28;20249;-78
2021/05/05 04:08:40;;;;;;;1.75;1.40;;;8.30;44.20;;;;;;5072674;28;20128;-78
2021/05/05 04:11:06;;;;;;;1.00;1.00;;;8.30;44.20;;;;;;5072708;28;20376;-77
2021/05/05 04:13:33;;;;;;;1.77;1.27;;;8.30;44.20;;;;;;5072527;28;20450;-77
2021/05/05 04:16:02;;;;;;;1.05;1.02;;;8.30;44.30;;;;;;5072834;28;20058;-78
2021/05/05 04:18:28;;;;;;;1.27;1.17;;;8.20;44.10;;;;;;5072668;28;20028;-77
2021/05/05 04:20:57;;;;;;;1.80;1.33;;;8.20;44.20;;;;;;5072770;28;20126;-78
2021/05/05 04:23:23;;;;;;;1.20;1.10;;;8.20;44.20;;;;;;5071590;28;20463;-78
2021/05/05 04:25:49;;;;;;;1.00;1.00;;;8.20;44.30;;;;;;5072254;28;20039;-78
2021/05/05 04:28:15;;;;;;;1.20;1.10;;;8.20;44.30;;;;;;5070867;28;20029;-78
2021/05/05 04:30:41;;;;;;;1.15;1.05;;;8.10;44.20;;;;;;5054535;28;20123;-79
2021/05/05 04:33:07;;;;;;;1.30;1.20;;;8.10;44.20;;;;;;5071471;28;20458;-77
2021/05/05 04:35:33;;;;;;;1.65;1.27;;;8.00;44.10;;;;;;5072227;28;20040;-77
2021/05/05 04:37:59;;;;;;;2.08;1.48;;;8.00;44.20;;;;;;5071012;28;20029;-79
2021/05/05 04:40:25;;;;;;;1.08;1.08;;;8.00;44.20;;;;;;5072042;28;20037;-78
2021/05/05 04:42:51;;;;;;;1.52;1.42;;;8.00;44.20;;;;;;5071781;28;20028;-80
2021/05/05 04:45:17;;;;;;;1.35;1.25;;;8.00;44.30;;;;;;5070406;28;20063;-83
2021/05/05 04:47:43;;;;;;;1.13;1.00;;;8.00;44.30;;;;;;5067798;28;20045;-81
2021/05/05 04:50:10;;;;;;;1.33;1.23;;;8.00;44.40;;;;;;5065581;28;20115;-78
2021/05/05 04:52:37;;;;;;;1.70;1.02;;;8.00;44.40;;;;;;5069044;28;20073;-78
2021/05/05 04:55:04;;;;;;;1.67;1.10;;;8.00;44.40;;;;;;5066118;28;20105;-81
2021/05/05 04:57:30;;;;;;;2.83;1.65;;;8.00;44.40;;;;;;5066421;28;20517;-78
2021/05/05 04:59:56;;;;;;;1.30;1.20;;;8.00;44.40;;;;;;5066384;28;20055;-78
2021/05/05 05:02:22;;;;;;;0.88;0.88;;;8.10;44.60;;;;;;5064805;28;20028;-80
2021/05/05 05:04:48;;;;;;;1.08;1.00;;;8.00;44.40;;;;;;5066547;28;20062;-79
2021/05/05 05:07:14;;;;;;;1.23;1.13;;;8.00;44.40;;;;;;5066889;28;20029;-80
2021/05/05 05:09:40;;;;;;;1.52;1.10;;;8.00;44.40;;;;;;5065603;28;20085;-78
2021/05/05 05:12:06;;;;;;;1.30;1.20;;;8.00;44.40;;;;;;5065556;28;20028;-80
2021/05/05 05:14:36;;;;;;;1.10;1.10;;;8.00;44.40;;;;;;5066374;28;20032;-79
2021/05/05 05:17:02;;;;;;;2.03;1.35;;;8.00;44.50;;;;;;5041496;28;20021;-78
2021/05/05 05:19:28;;;;;;;1.20;1.10;;;8.00;44.50;;;;;;5066091;28;20028;-79
2021/05/05 05:21:54;;;;;;;1.35;1.25;;;8.10;44.70;;;;;;5067268;28;20031;-78
2021/05/05 05:24:20;;;;;;;1.27;1.23;;;8.00;44.50;;;;;;5045921;28;20060;-78
2021/05/05 05:26:46;;;;;;;1.55;1.17;;;8.10;44.70;;;;;;5047378;28;20025;-78
2021/05/05 05:29:12;;;;;;;0.93;0.90;;;8.10;44.70;;;;;;5046890;28;20037;-78
2021/05/05 05:31:39;;;;;;;1.40;1.30;;;8.10;44.70;;;;;;5045622;28;20053;-79
2021/05/05 05:34:05;;;;;;;1.42;1.10;;;8.10;44.80;;;;;;5057801;28;20027;-77
2021/05/05 05:36:34;;;;;;;1.23;1.02;;;8.10;44.80;;;;;;5061599;28;20567;-78
2021/05/05 05:39:00;;;;;;;1.15;1.08;;;8.20;45.00;;;;;;5058085;28;20035;-78
2021/05/05 05:41:27;;;;;;;1.30;1.20;;;8.20;45.00;;;;;;5047178;28;20377;-77
2021/05/05 05:43:53;;;;;;;2.42;1.88;;;8.20;45.00;;;;;;5061967;28;20397;-81
2021/05/05 05:46:19;;;;;;;2.78;2.00;;;8.30;45.60;;;;;;5065685;28;20043;-79
2021/05/05 05:48:46;;;;;;;1.95;1.77;;;8.40;46.80;;;;;;5067496;28;20024;-78
2021/05/05 05:51:12;;;;;;;1.67;1.48;;;8.60;47.70;;;;;;5065749;28;20082;-77
2021/05/05 05:53:38;;;;;;;1.92;1.40;;;8.70;48.20;;;;;;5063488;28;20054;-82
2021/05/05 05:56:05;;;;;;;2.50;1.58;;;8.90;48.70;;;;;;5066162;28;20028;-80
2021/05/05 05:58:31;;;;;;;5.65;1.85;;;9.00;49.20;;;;;;5066104;28;20032;-78
2021/05/05 06:00:57;;;;;;;1.27;1.17;;;9.20;49.80;;;;;;5049112;28;20064;-78
2021/05/05 06:03:24;;;;;;;2.42;1.40;;;9.30;50.10;;;;;;5066541;28;20056;-77
2021/05/05 06:05:50;;;;;;;1.30;1.20;;;9.50;50.50;;;;;;5066979;28;20086;-77
2021/05/05 06:08:16;;;;;;;2.05;1.38;;;9.70;50.90;;;;;;5067030;28;20028;-77
2021/05/05 06:10:42;;;;;;;4.95;1.92;;;9.80;51.00;;;;;;5065972;28;20063;-77
2021/05/05 06:13:08;;;;;;;5.10;1.48;;;10.00;51.40;;;;;;5062815;28;20056;-78
2021/05/05 06:15:34;;;;;;;3.05;1.40;;;10.20;51.70;;;;;;5060784;28;20047;-80
2021/05/05 06:18:00;;;;;;;4.40;1.90;;;10.30;51.80;;;;;;5059209;28;20048;-79
2021/05/05 06:20:26;;;;;;;4.32;1.50;;;10.50;52.10;;;;;;5062952;28;20040;-77
2021/05/05 06:22:52;;;;;;;2.33;1.23;;;10.80;52.60;;;;;;5065340;28;20183;-78
2021/05/05 06:25:18;;;;;;;3.20;1.60;;;10.90;52.60;;;;;;5064938;28;20040;-76
2021/05/05 06:27:45;;;;;;;2.63;1.50;;;11.20;53.10;;;;;;5064381;28;20116;-76
2021/05/05 06:30:12;;;;;;;5.90;2.08;;;11.40;53.30;;;;;;5064225;28;20613;-74
2021/05/05 06:32:38;;;;;;;2.08;1.30;;;11.70;53.70;;;;;;5063461;28;20115;-77
2021/05/05 06:35:06;;;;;;;2.33;1.20;;;11.90;53.90;;;;;;5066059;28;20613;-76
2021/05/05 06:37:32;;;;;;;1.58;1.38;;;12.30;54.40;;;;;;5063432;28;20032;-76
2021/05/05 06:40:00;;;;;;;1.40;1.30;;;12.50;54.60;;;;;;5065528;28;20036;-75
2021/05/05 06:42:27;;;;;;;1.30;1.20;;;12.90;54.90;;;;;;5049637;28;20028;-75
2021/05/05 06:44:53;;;;;;;1.23;1.13;;;13.20;54.90;;;;;;5070119;28;20305;-76
2021/05/05 06:47:19;;;;;;;1.63;1.35;;;13.50;55.00;;;;;;5069287;28;20481;-77
2021/05/05 06:49:45;;;;;;;1.98;1.30;;;13.80;55.10;;;;;;5051710;28;20082;-77
2021/05/05 06:52:11;;;;;;;1.40;1.30;;;14.10;55.30;;;;;;5067946;28;20477;-77
2021/05/05 06:54:37;;;;;;;3.75;1.40;;;14.40;55.50;;;;;;5064358;28;20028;-77
2021/05/05 06:57:04;;;;;;;2.20;1.35;;;14.60;55.60;;;;;;5068765;28;20120;-77
2021/05/05 06:59:30;;;;;;;1.48;1.10;;;14.90;55.80;;;;;;5069264;28;20093;-76
2021/05/05 07:01:56;;;;;;;2.65;1.25;;;15.20;56.10;;;;;;5069895;28;20028;-79
2021/05/05 07:04:22;;;;;;;1.98;1.20;;;15.50;56.20;;;;;;5069473;28;20044;-78
2021/05/05 07:06:48;;;;;;;2.60;1.75;;;15.80;56.30;;;;;;5068804;28;20036;-77
2021/05/05 07:09:14;;;;;;;1.40;1.30;;;16.00;56.20;;;;;;5051271;28;20446;-79
2021/05/05 07:11:40;;;;;;;1.80;1.10;;;16.40;56.30;;;;;;5068295;28;20101;-79
2021/05/05 07:14:07;;;;;;;1.23;1.13;;;16.50;55.50;;;;;;5051736;28;20035;-78
2021/05/05 07:16:34;;;;;;;2.35;1.10;;;16.60;54.90;;;;;;5049748;28;20043;-77
2021/05/05 07:19:02;;;;;;;1.20;1.10;;;16.60;54.40;;;;;;5061992;28;20493;-77
2021/05/05 07:21:29;;;;;;;2.00;1.10;;;16.80;54.70;;;;;;5068983;28;20465;-75
2021/05/05 07:23:56;;;;;;;1.55;1.10;;;17.00;54.40;;;;;;5069074;28;20480;-77
2021/05/05 07:26:22;;;;;;;1.83;1.23;;;17.10;53.80;;;;;;5068119;28;20086;-76
2021/05/05 07:28:48;;;;;;;1.35;1.25;;;17.10;53.30;;;;;;5069296;28;20035;-78
2021/05/05 07:31:14;;;;;;;1.27;1.17;;;17.00;52.80;;;;;;5068235;28;20036;-78
2021/05/05 07:33:41;;;;;;;2.65;1.25;;;16.90;52.60;;;;;;5071134;28;20033;-81
2021/05/05 07:36:14;;;;;;;1.35;1.20;;;16.80;52.60;;;;;;5031359;28;20037;-79
2021/05/05 07:39:15;;;;;;;2.08;1.17;;;16.80;53.20;;;;;;5047915;28;20029;-85
2021/05/05 07:49:25;;;;;;;1.05;1.02;;;16.60;52.40;;;;;;5049173;28;20480;-76
2021/05/05 07:51:51;;;;;;;1.80;1.17;;;16.60;52.60;;;;;;5048490;28;20029;-76
2021/05/05 07:54:18;;;;;;;1.40;1.30;;;16.60;52.40;;;;;;5048580;28;20021;-75
2021/05/05 07:56:45;;;;;;;4.32;1.70;;;16.60;52.20;;;;;;5030554;28;20410;-76
2021/05/05 07:59:12;;;;;;;2.08;1.17;;;16.50;51.80;;;;;;5061470;28;20713;-78
2021/05/05 08:01:38;;;;;;;1.67;1.02;;;16.50;51.80;;;;;;5067350;28;20039;-79
2021/05/05 08:04:05;;;;;;;1.95;1.30;;;16.50;52.10;;;;;;5066992;28;20041;-77
2021/05/05 08:06:32;;;;;;;1.80;1.15;;;16.70;52.40;;;;;;5068130;28;20119;-76
2021/05/05 08:08:58;;;;;;;2.10;1.25;;;17.00;52.50;;;;;;5068179;28;20476;-79
2021/05/05 08:11:26;;;;;;;1.85;1.27;;;17.40;52.40;;;;;;5067552;28;20090;-80
2021/05/05 08:13:53;;;;;;;1.27;1.17;;;17.70;51.90;;;;;;5067965;28;20117;-80
2021/05/05 08:16:20;;;;;;;1.70;1.00;;;18.00;51.80;;;;;;5066650;28;20082;-79
2021/05/05 08:18:47;;;;;;;1.75;1.20;;;18.30;51.70;;;;;;5067878;28;20128;-80
2021/05/05 08:21:14;;;;;;;3.05;1.40;;;18.50;51.10;;;;;;5068875;28;20032;-79
2021/05/05 08:23:41;;;;;;;3.03;1.20;;;18.60;50.80;;;;;;5067638;28;20029;-79
2021/05/05 08:26:07;;;;;;;2.30;1.10;;;18.70;50.70;;;;;;5049838;28;20029;-78
2021/05/05 08:28:36;;;;;;;2.08;1.33;;;18.90;50.50;;;;;;5066464;28;20029;-78
2021/05/05 08:31:04;;;;;;;1.42;1.20;;;18.80;49.80;;;;;;5067896;28;20033;-78
2021/05/05 08:33:30;;;;;;;2.08;1.20;;;18.70;49.50;;;;;;5067192;28;20025;-79
2021/05/05 08:35:56;;;;;;;1.67;1.17;;;18.60;49.30;;;;;;5067979;28;20585;-78
2021/05/05 08:38:22;;;;;;;1.73;1.38;;;18.50;49.10;;;;;;5066116;28;20024;-81
2021/05/05 08:40:50;;;;;;;2.75;1.30;;;18.50;49.20;;;;;;5066767;28;20119;-80
2021/05/05 08:43:17;;;;;;;2.10;1.23;;;18.60;49.30;;;;;;5066347;28;20360;-80
2021/05/05 08:45:43;;;;;;;1.20;1.10;;;18.60;49.10;;;;;;5066297;28;20044;-80
2021/05/05 08:48:10;;;;;;;2.28;1.30;;;18.70;49.20;;;;;;5066521;28;20062;-80
2021/05/05 08:50:39;;;;;;;1.60;1.35;;;18.80;49.20;;;;;;5067820;28;20028;-80
2021/05/05 08:53:07;;;;;;;2.72;1.35;;;18.80;49.10;;;;;;5049428;28;20063;-80
2021/05/05 08:55:34;;;;;;;2.55;1.52;;;18.90;49.20;;;;;;5049566;28;20060;-81
2021/05/05 08:58:01;;;;;;;1.33;1.00;;;19.00;49.20;;;;;;5062734;28;20059;-82
2021/05/05 09:00:30;;;;;;;3.38;1.42;;;19.00;49.20;;;;;;5029687;28;20025;-78
2021/05/05 09:02:58;;;;;;;2.95;1.42;;;19.00;49.00;;;;;;5035965;28;20063;-81
2021/05/05 09:05:24;;;;;;;1.50;1.40;;;19.00;48.90;;;;;;5065141;28;20036;-82
2021/05/05 09:07:50;;;;;;;1.52;1.20;;;19.00;48.90;;;;;;5049227;28;20032;-82
2021/05/05 09:10:23;;;;;;;1.95;1.50;;;18.90;48.80;;;;;;5065690;28;20028;-82
2021/05/05 09:12:51;;;;;;;2.03;1.45;;;18.80;48.70;;;;;;5066016;28;20426;-82
2021/05/05 09:15:22;;;;;;;2.70;1.60;;;18.70;48.50;;;;;;5066132;28;20463;-82
2021/05/05 09:17:58;;;;;;;2.95;1.20;;;18.60;48.40;;;;;;5063403;28;20573;-82
2021/05/05 09:20:31;;;;;;;1.80;1.17;;;18.50;48.40;;;;;;5029586;28;20053;-82
2021/05/05 09:23:06;;;;;;;2.33;1.45;;;18.50;48.40;;;;;;5052423;28;20112;-81
2021/05/05 09:25:32;;;;;;;3.00;1.48;;;18.50;48.30;;;;;;5049181;28;20036;-81
2021/05/05 09:28:07;;;;;;;3.13;1.30;;;18.40;48.20;;;;;;5048874;28;20467;-79
2021/05/05 09:30:35;;;;;;;2.58;1.30;;;18.50;48.40;;;;;;5049155;28;20388;-75
2021/05/05 09:33:02;;;;;;;1.33;1.20;;;18.60;48.50;;;;;;5048866;28;20025;-76
2021/05/05 09:35:33;;;;;;;3.22;1.30;;;18.70;48.60;;;;;;5065885;28;20028;-77
2021/05/05 09:38:02;;;;;;;2.33;1.55;;;18.70;48.50;;;;;;5045796;28;20032;-80
2021/05/05 09:40:28;;;;;;;1.67;1.30;;;18.80;48.70;;;;;;5045546;28;20052;-81
2021/05/05 09:42:55;;;;;;;2.45;1.63;;;19.00;49.00;;;;;;5048827;28;20033;-81
2021/05/05 09:45:31;;;;;;;3.17;1.70;;;19.10;48.90;;;;;;5048656;28;20139;-80
2021/05/05 09:47:59;;;;;;;1.50;1.10;;;19.20;48.80;;;;;;5048618;28;20486;-80
2021/05/05 09:50:25;;;;;;;1.40;1.30;;;19.20;48.60;;;;;;5048967;28;20052;-80
2021/05/05 09:53:22;;;;;;;1.30;1.20;;;19.30;48.60;;;;;;5047975;28;20033;-80
2021/05/05 09:55:57;;;;;;;1.88;1.17;;;19.40;48.50;;;;;;5048781;28;20025;-80
2021/05/05 09:58:35;;;;;;;1.20;1.10;;;19.40;48.40;;;;;;5064661;28;20029;-80
2021/05/05 10:01:10;;;;;;;2.97;1.33;;;19.40;48.30;;;;;;5065976;28;20025;-81
2021/05/05 10:03:49;;;;;;;1.20;1.10;;;19.50;48.40;;;;;;5064556;28;20123;-79
2021/05/05 10:06:27;;;;;;;2.38;1.25;;;19.40;48.00;;;;;;5065018;28;20503;-79
2021/05/05 10:09:04;;;;;;;1.30;1.20;;;19.40;48.00;;;;;;5065414;28;20056;-81
2021/05/05 10:11:32;;;;;;;1.42;1.30;;;19.40;48.10;;;;;;5065607;28;20060;-81
2021/05/05 10:14:03;;;;;;;1.40;1.20;;;19.40;48.00;;;;;;5048463;28;20032;-81
2021/05/05 10:16:32;;;;;;;2.13;1.20;;;19.40;47.90;;;;;;5066430;28;20025;-83
2021/05/05 10:18:59;;;;;;;1.00;1.00;;;19.50;48.00;;;;;;5052414;28;20183;-82
2021/05/05 10:21:26;;;;;;;1.27;1.02;;;19.60;48.10;;;;;;5053084;28;20584;-84
2021/05/05 10:23:57;;;;;;;1.95;1.20;;;19.70;48.20;;;;;;5070376;28;20154;-83
2021/05/05 10:26:25;;;;;;;1.30;1.20;;;19.80;48.20;;;;;;5069788;28;20032;-82
2021/05/05 10:28:51;;;;;;;2.08;1.25;;;19.90;48.30;;;;;;5070744;28;20055;-82
2021/05/05 10:31:28;;;;;;;1.85;1.45;;;20.00;48.30;;;;;;5069118;28;20502;-82
2021/05/05 10:33:57;;;;;;;1.67;1.35;;;20.10;48.30;;;;;;5068848;28;20032;-85
2021/05/05 10:36:38;;;;;;;1.90;1.50;;;20.20;48.30;;;;;;5069442;28;20071;-82
2021/05/05 10:39:25;;;;;;;2.80;1.70;;;20.10;47.90;;;;;;5070273;28;20378;-79
2021/05/05 10:42:01;;;;;;;3.05;1.50;;;20.20;48.00;;;;;;5069660;28;20039;-80
2021/05/05 10:44:50;;;;;;;2.63;1.63;;;20.20;47.90;;;;;;5071806;28;20067;-79
2021/05/05 10:47:34;;;;;;;3.72;1.83;;;20.40;48.10;;;;;;5068860;28;20044;-80
2021/05/05 10:50:05;;;;;;;4.20;2.05;;;20.60;48.30;;;;;;5068788;28;20106;-79
2021/05/05 10:52:34;;;;;;;3.42;1.92;;;20.90;48.60;;;;;;5052093;28;20064;-84
2021/05/05 10:55:02;;;;;;;3.72;2.00;;;21.10;48.60;;;;;;5051921;28;20124;-85
2021/05/05 10:57:28;;;;;;;5.10;2.10;;;21.30;48.70;;;;;;5052158;28;20047;-85
2021/05/05 10:59:57;;;;;;;3.22;1.98;;;21.40;48.50;;;;;;5051712;28;20522;-84
2021/05/05 11:02:40;;;;;;;3.97;2.17;;;21.50;48.40;;;;;;5051678;28;20044;-83
2021/05/05 11:05:35;;;;;;;2.05;1.60;;;21.60;48.40;;;;;;5051809;28;20049;-81
2021/05/05 11:08:04;;;;;;;3.88;1.95;;;21.70;48.40;;;;;;5068290;28;20044;-80
2021/05/05 11:10:34;;;;;;;3.00;1.95;;;21.70;48.40;;;;;;5051534;28;20029;-80
2021/05/05 11:13:02;;;;;;;3.50;1.90;;;21.80;48.40;;;;;;5048736;28;20056;-83
2021/05/05 11:15:45;;;;;;;4.15;1.80;;;22.00;48.70;;;;;;5048231;28;20068;-80
2021/05/05 11:20:59;;;;;;;6.57;3.03;;;22.20;46.90;;;;;;5068393;28;20052;-82
2021/05/05 11:23:38;;;;;;;6.18;2.88;;;22.30;47.30;;;;;;5051303;28;20032;-80
2021/05/05 11:26:20;;;;;;;4.97;2.00;;;22.40;47.30;;;;;;5051874;28;20131;-81
2021/05/05 11:29:09;;;;;;;4.18;2.65;;;22.50;47.30;;;;;;5050662;28;20024;-80
2021/05/05 11:31:51;;;;;;;4.38;2.05;;;22.60;47.40;;;;;;5068699;28;20033;-82
2021/05/05 11:34:23;;;;;;;4.93;2.15;;;22.60;47.40;;;;;;5068261;28;20060;-84
2021/05/05 11:36:55;;;;;;;5.00;2.92;;;22.60;47.30;;;;;;5051105;28;20113;-82
2021/05/05 11:39:25;;;;;;;4.45;2.28;;;22.50;47.20;;;;;;5051481;28;20063;-80
2021/05/05 11:42:01;;;;;;;4.82;2.72;;;22.40;47.20;;;;;;5051514;28;20043;-82
2021/05/05 11:44:52;;;;;;;4.05;2.97;;;22.30;47.00;;;;;;5051847;28;20049;-82
2021/05/05 11:47:26;;;;;;;4.38;2.17;;;22.20;47.00;;;;;;5051464;28;20043;-85
2021/05/05 11:49:53;;;;;;;3.20;2.15;;;22.00;46.90;;;;;;5047929;28;20283;-83
2021/05/05 11:52:31;;;;;;;5.47;1.90;;;21.90;46.90;;;;;;5049759;28;20675;-82
2021/05/05 11:55:13;;;;;;;2.63;2.03;;;21.80;46.80;;;;;;5051204;28;20024;-81
2021/05/05 11:57:57;;;;;;;4.40;2.60;;;21.80;47.00;;;;;;5067826;28;20730;-81
2021/05/05 12:00:33;;;;;;;2.70;1.90;;;21.80;47.00;;;;;;5051062;28;20127;-81
2021/05/05 12:03:03;;;;;;;2.85;2.05;;;21.80;46.90;;;;;;5067258;28;20047;-82
2021/05/05 12:05:36;;;;;;;5.07;1.73;;;21.80;46.90;;;;;;5050917;28;20245;-81
2021/05/05 12:08:10;;;;;;;3.10;2.20;;;21.70;46.70;;;;;;5067167;28;20070;-82
2021/05/05 12:11:02;;;;;;;3.58;2.22;;;21.80;46.90;;;;;;5050380;28;20028;-80
2021/05/05 12:13:45;;;;;;;3.65;1.90;;;21.70;46.70;;;;;;5066409;28;20119;-81
2021/05/05 12:16:34;;;;;;;2.40;1.70;;;21.80;46.80;;;;;;5067667;28;20060;-80
2021/05/05 12:19:00;;;;;;;2.85;1.77;;;21.90;47.00;;;;;;5050662;28;20123;-81
2021/05/05 12:21:28;;;;;;;6.53;2.17;;;22.00;47.10;;;;;;5066749;28;20089;-80
2021/05/05 12:23:56;;;;;;;4.78;1.83;;;22.00;47.10;;;;;;5068043;28;20072;-80
2021/05/05 12:26:28;;;;;;;2.95;1.40;;;22.00;47.00;;;;;;5066966;28;20053;-81
2021/05/05 12:28:59;;;;;;;2.53;1.58;;;22.20;47.20;;;;;;5067886;28;20043;-81
2021/05/05 12:31:27;;;;;;;2.28;1.50;;;22.20;47.10;;;;;;5067478;28;20074;-84
2021/05/05 12:33:57;;;;;;;2.83;1.58;;;22.30;47.30;;;;;;5066630;28;20329;-83
2021/05/05 12:36:25;;;;;;;2.42;1.50;;;22.30;47.10;;;;;;5067208;28;20032;-80
2021/05/05 12:38:54;;;;;;;1.55;1.35;;;22.40;47.30;;;;;;5068202;28;20031;-82
2021/05/05 12:41:25;;;;;;;3.55;1.60;;;22.50;47.40;;;;;;5066632;28;20028;-84
2021/05/05 12:43:56;;;;;;;4.57;1.40;;;22.60;47.50;;;;;;5066453;28;20505;-81
2021/05/05 12:46:30;;;;;;;2.55;1.90;;;22.70;47.60;;;;;;5066471;28;20075;-80
2021/05/05 12:48:58;;;;;;;2.22;1.30;;;22.80;47.50;;;;;;5066997;28;20028;-80
2021/05/05 12:51:26;;;;;;;2.63;1.83;;;22.90;47.60;;;;;;5066470;28;20081;-81
2021/05/05 12:53:58;;;;;;;1.45;1.30;;;23.00;47.60;;;;;;5067719;28;20028;-81
2021/05/05 12:56:39;;;;;;;2.45;1.75;;;23.10;47.60;;;;;;5083090;28;20074;-82
2021/05/05 12:59:06;;;;;;;1.92;1.13;;;23.20;47.60;;;;;;5067670;28;20032;-84
2021/05/05 13:01:33;;;;;;;1.65;1.38;;;23.40;47.90;;;;;;5067114;28;20031;-82
2021/05/05 13:03:59;;;;;;;1.60;1.00;;;23.50;47.90;;;;;;5066942;28;20549;-82
2021/05/05 13:06:48;;;;;;;2.22;1.35;;;23.50;47.80;;;;;;5067228;28;20032;-82
2021/05/05 13:09:24;;;;;;;1.67;1.23;;;23.70;47.90;;;;;;5066182;28;20067;-82
2021/05/05 13:12:31;;;;;;;2.05;1.02;;;23.80;47.90;;;;;;5067557;28;20288;-82